Time;durP1;ratioP1;P1;durP2;ratioP2;P2;SDS_P1;SDS_P2;PMS_P1;PMS_P2;Temp;Humidity;BMP_temperature;BMP_pressure;BME280_temperature;BME280_humidity;BME280_pressure;Samples;Min_cycle;Max_cycle;Signal;HPM_P1;HPM_P2
2022/11/26 00:00:59;;;;;;;34.92;15.88;;;5.80;99.90;;;;;;6063872;23;94772;-73
2022/11/26 00:03:26;;;;;;;37.72;16.38;;;5.80;99.90;;;;;;6065788;23;92310;-73
2022/11/26 00:05:55;;;;;;;35.15;14.73;;;5.80;99.90;;;;;;6063373;23;95722;-73
2022/11/26 00:08:29;;;;;;;35.95;15.27;;;5.70;99.90;;;;;;6065360;23;92437;-73
2022/11/26 00:10:56;;;;;;;35.97;15.20;;;5.70;99.90;;;;;;6063655;23;92449;-73
2022/11/26 00:13:25;;;;;;;32.63;14.68;;;5.70;99.90;;;;;;6039666;23;92517;-73
2022/11/26 00:15:53;;;;;;;45.50;16.17;;;5.70;99.90;;;;;;6063472;23;92464;-73
2022/11/26 00:18:22;;;;;;;26.77;13.07;;;5.70;99.90;;;;;;6065653;23;93063;-73
2022/11/26 00:20:55;;;;;;;37.28;16.27;;;5.70;99.90;;;;;;6063364;23;92411;-73
2022/11/26 00:23:25;;;;;;;31.73;13.87;;;5.70;99.90;;;;;;6065465;23;92409;-73
2022/11/26 00:25:57;;;;;;;33.05;14.32;;;5.70;99.90;;;;;;6061385;23;98879;-73
2022/11/26 00:28:34;;;;;;;32.75;16.05;;;5.70;99.90;;;;;;6063527;23;96635;-73
2022/11/26 00:31:11;;;;;;;33.92;14.77;;;5.80;99.90;;;;;;6063445;23;92874;-73
2022/11/26 00:33:38;;;;;;;33.20;15.05;;;5.80;99.90;;;;;;6065508;23;92542;-73
2022/11/26 00:36:24;;;;;;;34.03;14.63;;;5.70;99.90;;;;;;6065093;23;93104;-73
2022/11/26 00:39:00;;;;;;;36.92;16.33;;;5.70;99.90;;;;;;6065092;23;92949;-73
2022/11/26 00:41:33;;;;;;;34.83;15.55;;;5.70;99.90;;;;;;6039582;23;92509;-73
2022/11/26 00:44:01;;;;;;;27.50;14.07;;;5.70;99.90;;;;;;6064009;23;92213;-73
2022/11/26 00:46:28;;;;;;;33.08;14.43;;;5.60;99.90;;;;;;6063506;23;93013;-73
2022/11/26 00:48:55;;;;;;;33.85;15.13;;;5.60;99.90;;;;;;6064327;23;95262;-73
2022/11/26 00:51:25;;;;;;;38.35;15.05;;;5.60;99.90;;;;;;6063668;23;94772;-73
2022/11/26 00:53:54;;;;;;;37.42;15.32;;;5.60;99.90;;;;;;6063006;23;92452;-73
2022/11/26 00:56:22;;;;;;;36.13;16.10;;;5.60;99.90;;;;;;6063616;23;93002;-73
2022/11/26 00:58:49;;;;;;;42.80;17.02;;;5.60;99.90;;;;;;6063130;23;92901;-73
2022/11/26 01:01:20;;;;;;;38.15;14.40;;;5.60;99.90;;;;;;6063268;23;99018;-73
2022/11/26 01:03:47;;;;;;;31.90;14.82;;;5.60;99.90;;;;;;6063245;23;92339;-73
2022/11/26 01:06:19;;;;;;;34.55;14.85;;;5.50;99.90;;;;;;6063462;23;93129;-73
2022/11/26 01:08:46;;;;;;;34.67;15.35;;;5.50;99.90;;;;;;6063680;23;93048;-73
2022/11/26 01:11:17;;;;;;;31.98;15.43;;;5.50;99.90;;;;;;6063429;23;92415;-73
2022/11/26 01:13:47;;;;;;;27.60;14.05;;;5.50;99.90;;;;;;6063514;23;92526;-73
2022/11/26 01:16:27;;;;;;;30.60;14.75;;;5.50;99.90;;;;;;6061837;23;95758;-73
2022/11/26 01:18:57;;;;;;;32.25;14.88;;;5.50;99.90;;;;;;6064477;23;95107;-73
2022/11/26 01:21:26;;;;;;;37.75;15.80;;;5.50;99.90;;;;;;6064868;23;92270;-73
2022/11/26 01:23:53;;;;;;;34.38;15.98;;;5.50;99.90;;;;;;6062807;23;92929;-73
2022/11/26 01:26:27;;;;;;;34.67;16.30;;;5.40;99.90;;;;;;6063286;23;93316;-73
2022/11/26 01:28:54;;;;;;;34.75;15.48;;;5.50;99.90;;;;;;6065912;23;93533;-73
2022/11/26 01:31:24;;;;;;;34.35;15.35;;;5.50;99.90;;;;;;6066115;23;92305;-73
2022/11/26 01:33:51;;;;;;;31.83;15.52;;;5.40;99.90;;;;;;6064718;23;92348;-73
2022/11/26 01:36:24;;;;;;;33.60;15.48;;;5.40;99.90;;;;;;6066110;23;92962;-73
2022/11/26 01:38:53;;;;;;;36.03;14.57;;;5.40;99.90;;;;;;6064010;23;95550;-73
2022/11/26 01:41:32;;;;;;;34.45;15.63;;;5.40;99.90;;;;;;6064723;23;94714;-73
2022/11/26 01:43:59;;;;;;;30.17;15.02;;;5.40;99.90;;;;;;6064572;23;92361;-73
2022/11/26 01:46:32;;;;;;;34.50;14.88;;;5.40;99.90;;;;;;6065603;23;102651;-73
2022/11/26 01:49:20;;;;;;;30.15;15.98;;;5.40;99.90;;;;;;6039850;23;96814;-73
2022/11/26 01:51:55;;;;;;;39.97;15.10;;;5.40;99.90;;;;;;6064673;23;92446;-73
2022/11/26 01:54:22;;;;;;;28.83;14.77;;;5.30;99.90;;;;;;6064920;23;92951;-73
2022/11/26 01:56:53;;;;;;;36.85;17.23;;;5.30;99.90;;;;;;6064155;23;95700;-73
2022/11/26 01:59:28;;;;;;;37.83;17.50;;;5.30;99.90;;;;;;6064995;23;94064;-73
2022/11/26 02:01:58;;;;;;;36.60;16.98;;;5.30;99.90;;;;;;6040187;23;92545;-73
2022/11/26 02:05:08;;;;;;;39.90;16.38;;;5.30;99.90;;;;;;6066388;23;93026;-73
2022/11/26 02:07:37;;;;;;;41.67;16.30;;;5.30;99.90;;;;;;6062667;23;98224;-73
2022/11/26 02:10:05;;;;;;;30.15;15.23;;;5.30;99.90;;;;;;6063689;23;98032;-73
2022/11/26 02:12:33;;;;;;;39.33;17.00;;;5.30;99.90;;;;;;6065933;23;92367;-73
2022/11/26 02:15:00;;;;;;;39.55;17.40;;;5.30;99.90;;;;;;6064294;23;92668;-73
2022/11/26 02:17:36;;;;;;;33.20;15.60;;;5.30;99.90;;;;;;6065845;23;93269;-73
2022/11/26 02:20:30;;;;;;;32.95;16.98;;;5.30;99.90;;;;;;6064215;23;93108;-73
2022/11/26 02:23:21;;;;;;;37.75;15.82;;;5.30;99.90;;;;;;6064213;23;92449;-73
2022/11/26 02:26:01;;;;;;;30.63;15.52;;;5.30;99.90;;;;;;6064978;23;91596;-73
2022/11/26 02:28:40;;;;;;;27.08;15.40;;;5.30;99.90;;;;;;6064015;23;95609;-73
2022/11/26 02:31:10;;;;;;;35.28;16.83;;;5.30;99.90;;;;;;6065452;23;93092;-73
2022/11/26 02:33:36;;;;;;;39.22;18.52;;;5.30;99.90;;;;;;6064556;23;94794;-73
2022/11/26 02:36:11;;;;;;;31.35;16.10;;;5.20;99.90;;;;;;6064318;23;92455;-73
2022/11/26 02:38:38;;;;;;;40.35;16.85;;;5.30;99.90;;;;;;6065843;23;93291;-73
2022/11/26 02:41:05;;;;;;;31.77;16.00;;;5.30;99.90;;;;;;6063773;23;95994;-73
2022/11/26 02:43:34;;;;;;;34.08;16.67;;;5.30;99.90;;;;;;6040392;23;92952;-73
2022/11/26 02:46:11;;;;;;;40.35;17.23;;;5.30;99.90;;;;;;6065716;23;92395;-73
2022/11/26 02:48:43;;;;;;;38.63;17.75;;;5.30;99.90;;;;;;6065307;23;93230;-73
2022/11/26 02:51:25;;;;;;;40.92;16.88;;;5.30;99.90;;;;;;6064654;23;93071;-73
2022/11/26 02:53:57;;;;;;;40.30;16.80;;;5.30;99.90;;;;;;6065937;23;92431;-73
2022/11/26 02:56:27;;;;;;;34.03;15.98;;;5.30;99.90;;;;;;6065661;23;92392;-73
2022/11/26 02:58:55;;;;;;;42.17;18.30;;;5.30;99.90;;;;;;6062616;23;98269;-73
2022/11/26 03:01:37;;;;;;;43.22;18.00;;;5.30;99.90;;;;;;6063808;23;95426;-73
2022/11/26 03:04:14;;;;;;;33.83;16.33;;;5.30;99.90;;;;;;6065767;23;92907;-73
2022/11/26 03:06:42;;;;;;;39.28;17.48;;;5.30;99.90;;;;;;6064400;23;92408;-73
2022/11/26 03:09:09;;;;;;;41.30;17.25;;;5.30;99.90;;;;;;6065310;23;95308;-73
2022/11/26 03:11:36;;;;;;;38.67;17.63;;;5.20;99.90;;;;;;6065928;23;92764;-73
2022/11/26 03:14:03;;;;;;;38.22;17.73;;;5.20;99.90;;;;;;6065544;23;92395;-73
2022/11/26 03:16:30;;;;;;;46.03;17.45;;;5.20;99.90;;;;;;6066197;23;91852;-73
2022/11/26 03:18:57;;;;;;;42.90;18.00;;;5.20;99.90;;;;;;6063654;23;104182;-73
2022/11/26 03:21:24;;;;;;;36.60;17.10;;;5.20;99.90;;;;;;6065474;23;92947;-73
2022/11/26 03:23:51;;;;;;;37.22;17.40;;;5.20;99.90;;;;;;6062608;23;94850;-73
2022/11/26 03:26:18;;;;;;;40.10;17.08;;;5.20;99.90;;;;;;6039528;23;92385;-73
2022/11/26 03:28:45;;;;;;;41.45;17.25;;;5.10;99.90;;;;;;6065562;23;93270;-73
2022/11/26 03:31:12;;;;;;;47.22;17.25;;;5.10;99.90;;;;;;6063697;23;93066;-73
2022/11/26 03:33:39;;;;;;;43.05;16.60;;;5.10;99.90;;;;;;6063837;23;92492;-73
2022/11/26 03:36:06;;;;;;;36.10;16.75;;;5.00;99.90;;;;;;6065610;23;92392;-73
2022/11/26 03:38:33;;;;;;;41.20;17.58;;;5.00;99.90;;;;;;6065486;23;93069;-73
2022/11/26 03:41:02;;;;;;;37.50;17.75;;;5.00;99.90;;;;;;6064486;23;93055;-73
2022/11/26 03:43:29;;;;;;;37.25;16.98;;;5.00;99.90;;;;;;6065474;23;92376;-73
2022/11/26 03:45:56;;;;;;;45.88;17.42;;;5.00;99.90;;;;;;6065121;23;100944;-73
2022/11/26 03:48:23;;;;;;;41.28;18.10;;;5.00;99.90;;;;;;6063109;23;95496;-73
2022/11/26 03:50:50;;;;;;;37.08;17.60;;;5.00;99.90;;;;;;6063464;23;95712;-73
2022/11/26 03:53:17;;;;;;;37.05;16.15;;;5.00;99.90;;;;;;6063482;23;92409;-73
2022/11/26 03:55:44;;;;;;;41.15;17.08;;;4.90;99.90;;;;;;6063812;23;93922;-73
2022/11/26 03:58:11;;;;;;;39.22;17.05;;;4.90;99.90;;;;;;6063416;23;95660;-73
2022/11/26 04:00:38;;;;;;;37.97;18.23;;;4.90;99.90;;;;;;6039501;23;95981;-73
2022/11/26 04:03:05;;;;;;;39.83;19.13;;;4.90;99.90;;;;;;6065515;23;92339;-73
2022/11/26 04:05:32;;;;;;;39.08;17.67;;;4.90;99.90;;;;;;6064233;23;91729;-73
2022/11/26 04:07:59;;;;;;;48.58;21.38;;;4.90;99.90;;;;;;6065554;23;93188;-73
2022/11/26 04:10:26;;;;;;;46.58;20.02;;;4.90;99.90;;;;;;6064532;23;105403;-73
2022/11/26 04:12:52;;;;;;;37.83;18.35;;;4.90;99.90;;;;;;6063930;23;94715;-73
2022/11/26 04:15:19;;;;;;;39.03;18.88;;;4.80;99.90;;;;;;6065239;23;92376;-73
2022/11/26 04:17:46;;;;;;;41.53;19.00;;;4.90;99.90;;;;;;6063783;23;96035;-73
2022/11/26 04:20:13;;;;;;;41.83;18.55;;;4.80;99.90;;;;;;6063655;23;93024;-73
2022/11/26 04:22:40;;;;;;;43.80;18.85;;;4.80;99.90;;;;;;6064040;23;92405;-73
2022/11/26 04:25:07;;;;;;;48.00;19.60;;;4.80;99.90;;;;;;6065456;23;93107;-73
2022/11/26 04:27:34;;;;;;;42.13;18.80;;;4.80;99.90;;;;;;6063628;23;93341;-73
2022/11/26 04:30:02;;;;;;;46.42;19.02;;;4.80;99.90;;;;;;6065663;23;91965;-73
2022/11/26 04:32:29;;;;;;;42.20;18.77;;;4.80;99.90;;;;;;6063506;23;92489;-73
2022/11/26 04:34:56;;;;;;;43.63;19.10;;;4.80;99.90;;;;;;6064934;23;94799;-73
2022/11/26 04:37:23;;;;;;;47.67;21.20;;;4.70;99.90;;;;;;6063382;23;95985;-73
2022/11/26 04:39:50;;;;;;;44.83;21.65;;;4.70;99.90;;;;;;6063357;23;97953;-73
2022/11/26 04:42:16;;;;;;;49.53;21.00;;;4.70;99.90;;;;;;6064969;23;92379;-73
2022/11/26 04:44:43;;;;;;;46.38;21.17;;;4.70;99.90;;;;;;6065295;23;92442;-73
2022/11/26 04:47:10;;;;;;;47.97;21.60;;;4.70;99.90;;;;;;6064919;23;93267;-73
2022/11/26 04:49:37;;;;;;;43.58;21.25;;;4.70;99.90;;;;;;6063287;23;95513;-73
2022/11/26 04:52:04;;;;;;;46.90;22.23;;;4.70;99.90;;;;;;6063057;23;92372;-73
2022/11/26 04:54:31;;;;;;;46.30;22.70;;;4.70;99.90;;;;;;6063590;23;91978;-73
2022/11/26 04:56:58;;;;;;;50.47;22.88;;;4.70;99.90;;;;;;6062779;23;106509;-73
2022/11/26 04:59:25;;;;;;;46.40;23.17;;;4.70;99.90;;;;;;6062962;23;95778;-73
2022/11/26 05:01:52;;;;;;;47.08;21.98;;;4.70;99.90;;;;;;6064257;23;94712;-73
2022/11/26 05:04:19;;;;;;;42.88;23.00;;;4.70;99.90;;;;;;6066127;23;92406;-73
2022/11/26 05:06:46;;;;;;;52.72;23.38;;;4.70;99.90;;;;;;6064711;23;93124;-73
2022/11/26 05:09:12;;;;;;;52.03;22.65;;;4.70;99.90;;;;;;6066307;23;93047;-73
2022/11/26 05:11:39;;;;;;;52.80;24.25;;;4.70;99.90;;;;;;6064528;23;92449;-73
2022/11/26 05:14:06;;;;;;;46.17;22.73;;;4.70;99.90;;;;;;6040503;23;92547;-73
2022/11/26 05:16:33;;;;;;;51.97;23.48;;;4.70;99.90;;;;;;6064219;23;95854;-73
2022/11/26 05:19:00;;;;;;;42.08;22.60;;;4.70;99.90;;;;;;6065043;23;94147;-73
2022/11/26 05:21:27;;;;;;;48.80;24.92;;;4.70;99.90;;;;;;6066074;23;92375;-73
2022/11/26 05:23:54;;;;;;;45.47;22.95;;;4.80;99.90;;;;;;6064826;23;92470;-73
2022/11/26 05:26:21;;;;;;;51.78;24.27;;;4.80;99.90;;;;;;6062716;23;98176;-73
2022/11/26 05:28:48;;;;;;;56.22;25.52;;;4.80;99.90;;;;;;6065370;23;111097;-73
2022/11/26 05:31:15;;;;;;;59.97;25.35;;;4.80;99.90;;;;;;6064862;23;92394;-73
2022/11/26 05:33:42;;;;;;;82.40;28.15;;;4.80;99.90;;;;;;6066162;23;92419;-73
2022/11/26 05:36:09;;;;;;;95.78;29.35;;;4.80;99.90;;;;;;6064335;23;95538;-73
2022/11/26 05:38:36;;;;;;;96.57;28.00;;;4.90;99.90;;;;;;6065768;23;93504;-73
2022/11/26 05:41:03;;;;;;;114.43;27.52;;;5.00;99.90;;;;;;6066185;23;92336;-73
2022/11/26 05:43:30;;;;;;;162.68;31.88;;;5.00;99.90;;;;;;6066344;23;91722;-73
2022/11/26 05:46:05;;;;;;;134.40;29.10;;;5.00;99.90;;;;;;6066040;23;93184;-73
2022/11/26 05:48:33;;;;;;;154.90;29.77;;;5.10;99.90;;;;;;6063778;23;95923;-73
2022/11/26 05:51:01;;;;;;;109.43;25.52;;;5.20;99.90;;;;;;6064647;23;94780;-73
2022/11/26 05:53:29;;;;;;;188.52;33.13;;;5.20;99.90;;;;;;6065821;23;92416;-73
2022/11/26 05:55:56;;;;;;;140.20;28.35;;;5.30;99.90;;;;;;6066142;23;92346;-73
2022/11/26 05:58:23;;;;;;;180.90;31.95;;;5.30;99.90;;;;;;6064416;23;92937;-73
2022/11/26 06:00:50;;;;;;;167.93;32.13;;;5.40;99.90;;;;;;6066028;23;92419;-73
2022/11/26 06:03:17;;;;;;;138.68;28.02;;;5.40;99.90;;;;;;6064378;23;92525;-73
2022/11/26 06:05:46;;;;;;;186.68;35.83;;;5.40;99.90;;;;;;6065589;23;93193;-73
2022/11/26 06:08:13;;;;;;;125.93;28.05;;;5.50;99.90;;;;;;6040427;23;95545;-73
2022/11/26 06:10:43;;;;;;;110.38;25.98;;;5.50;99.90;;;;;;6064356;23;92560;-73
2022/11/26 06:13:10;;;;;;;134.80;27.77;;;5.60;99.90;;;;;;6064634;23;92407;-73
2022/11/26 06:15:37;;;;;;;108.32;25.83;;;5.60;99.90;;;;;;6062190;23;107590;-73
2022/11/26 06:18:04;;;;;;;121.03;27.73;;;5.60;99.90;;;;;;6065730;23;95426;-73
2022/11/26 06:20:31;;;;;;;95.90;25.35;;;5.70;99.90;;;;;;6064353;23;92434;-73
2022/11/26 06:22:58;;;;;;;145.50;27.50;;;5.70;99.90;;;;;;6064427;23;92480;-73
2022/11/26 06:25:25;;;;;;;109.43;24.67;;;5.70;99.90;;;;;;6065800;23;93214;-73
2022/11/26 06:27:52;;;;;;;95.65;23.48;;;5.70;99.90;;;;;;6063998;23;95481;-73
2022/11/26 06:30:20;;;;;;;63.30;20.75;;;5.70;99.90;;;;;;6064566;23;92361;-73
2022/11/26 06:32:47;;;;;;;78.75;25.50;;;5.80;99.90;;;;;;6064610;23;91739;-73
2022/11/26 06:35:15;;;;;;;152.23;28.42;;;5.80;99.90;;;;;;6065875;23;93129;-73
2022/11/26 06:37:41;;;;;;;97.65;21.83;;;5.80;99.90;;;;;;6064115;23;92853;-73
2022/11/26 06:40:16;;;;;;;97.47;22.73;;;5.80;99.90;;;;;;6064505;23;94778;-73
2022/11/26 06:42:50;;;;;;;75.18;22.80;;;5.80;99.90;;;;;;6064165;23;92538;-73
2022/11/26 06:45:19;;;;;;;127.15;27.05;;;5.90;99.90;;;;;;6065830;23;93200;-73
2022/11/26 06:47:47;;;;;;;81.03;22.33;;;5.90;99.90;;;;;;6064871;23;92946;-73
2022/11/26 06:50:16;;;;;;;118.32;25.42;;;5.90;99.90;;;;;;6064363;23;92521;-73
2022/11/26 06:52:43;;;;;;;113.13;25.83;;;5.90;99.90;;;;;;6065556;23;92428;-73
2022/11/26 06:55:10;;;;;;;93.85;23.77;;;5.90;99.90;;;;;;6066003;23;93073;-73
2022/11/26 06:57:37;;;;;;;99.30;26.20;;;6.00;99.90;;;;;;6064191;23;95566;-73
2022/11/26 07:00:05;;;;;;;90.30;24.35;;;6.00;99.90;;;;;;6065990;23;92302;-73
2022/11/26 07:02:32;;;;;;;126.88;28.42;;;6.00;99.90;;;;;;6064403;23;92962;-73
2022/11/26 07:04:59;;;;;;;108.28;26.52;;;6.00;99.90;;;;;;6064235;23;95381;-73
2022/11/26 07:07:26;;;;;;;83.18;24.45;;;6.10;99.90;;;;;;6065535;23;95348;-73
2022/11/26 07:09:53;;;;;;;86.47;25.55;;;6.10;99.90;;;;;;6064073;23;92559;-73
2022/11/26 07:12:20;;;;;;;90.53;23.55;;;6.10;99.90;;;;;;6065708;23;92267;-73
2022/11/26 07:14:46;;;;;;;70.50;23.55;;;6.10;99.90;;;;;;6065408;23;93182;-73
2022/11/26 07:17:13;;;;;;;72.40;23.85;;;6.10;99.90;;;;;;6063865;23;95738;-73
2022/11/26 07:19:40;;;;;;;115.90;28.10;;;6.20;99.90;;;;;;6064109;23;92494;-73
2022/11/26 07:22:07;;;;;;;95.28;25.10;;;6.20;99.90;;;;;;6066238;23;91641;-73
2022/11/26 07:24:34;;;;;;;124.20;28.95;;;6.20;99.90;;;;;;6063652;23;93186;-73
2022/11/26 07:27:01;;;;;;;65.35;22.92;;;6.20;99.90;;;;;;6065265;23;93028;-73
2022/11/26 07:29:28;;;;;;;66.93;24.50;;;6.20;99.90;;;;;;6062876;23;94748;-73
2022/11/26 07:31:55;;;;;;;79.60;26.10;;;6.30;99.90;;;;;;6064063;23;92487;-73
2022/11/26 07:34:22;;;;;;;65.85;23.13;;;6.30;99.90;;;;;;6065477;23;92789;-73
2022/11/26 07:36:48;;;;;;;99.80;44.70;;;6.30;99.90;;;;;;6063572;23;95792;-73
2022/11/26 07:39:19;;;;;;;83.45;40.25;;;6.40;99.90;;;;;;6064269;23;92499;-73
2022/11/26 07:41:46;;;;;;;68.60;22.33;;;6.40;99.90;;;;;;6064070;23;92434;-73
2022/11/26 07:44:14;;;;;;;100.68;50.53;;;6.40;99.90;;;;;;6063847;23;96280;-73
2022/11/26 07:46:40;;;;;;;97.88;28.80;;;6.40;99.90;;;;;;6064245;23;92921;-73
2022/11/26 07:49:07;;;;;;;62.63;26.05;;;6.40;99.90;;;;;;6064954;23;92561;-73
2022/11/26 07:51:35;;;;;;;64.05;27.67;;;6.50;99.90;;;;;;6065529;23;92460;-73
2022/11/26 07:54:05;;;;;;;65.20;23.60;;;6.50;99.90;;;;;;6063617;23;95409;-73
2022/11/26 07:56:32;;;;;;;76.50;23.85;;;6.50;99.90;;;;;;6065264;23;95452;-73
2022/11/26 07:59:00;;;;;;;54.22;22.30;;;6.60;99.90;;;;;;6063496;23;92487;-73
2022/11/26 08:01:30;;;;;;;64.70;23.27;;;6.60;99.90;;;;;;6064158;23;92496;-73
2022/11/26 08:03:59;;;;;;;49.53;22.38;;;6.60;99.90;;;;;;6063687;23;93180;-73
2022/11/26 08:06:28;;;;;;;96.47;32.22;;;6.70;99.90;;;;;;6062531;23;114689;-73
2022/11/26 08:08:58;;;;;;;67.20;23.02;;;6.70;99.90;;;;;;6039345;23;92453;-73
2022/11/26 08:11:28;;;;;;;52.65;20.45;;;6.70;99.90;;;;;;6063852;23;94199;-73
2022/11/26 08:14:01;;;;;;;71.05;22.60;;;6.80;99.90;;;;;;6039103;23;96232;-73
2022/11/26 08:16:29;;;;;;;46.80;20.40;;;6.80;99.90;;;;;;6063690;23;95597;-73
2022/11/26 08:18:57;;;;;;;53.88;21.05;;;6.90;99.90;;;;;;6063697;23;95203;-73
2022/11/26 08:21:24;;;;;;;45.08;19.15;;;6.90;99.90;;;;;;6065384;23;92402;-73
2022/11/26 08:23:53;;;;;;;59.63;22.58;;;6.90;99.90;;;;;;6064898;23;93263;-73
2022/11/26 08:26:20;;;;;;;53.38;25.67;;;7.00;99.90;;;;;;6063369;23;95494;-73
2022/11/26 08:28:53;;;;;;;42.40;18.80;;;7.10;99.90;;;;;;6065191;23;92376;-73
2022/11/26 08:31:21;;;;;;;60.17;23.48;;;7.10;99.90;;;;;;6063587;23;92600;-73
2022/11/26 08:33:48;;;;;;;57.22;31.15;;;7.20;99.90;;;;;;6064684;23;93176;-73
2022/11/26 08:36:15;;;;;;;51.47;26.45;;;7.20;99.90;;;;;;6066129;23;92801;-73
2022/11/26 08:38:42;;;;;;;57.35;33.90;;;7.30;99.90;;;;;;6066290;23;97387;-73
2022/11/26 08:41:13;;;;;;;45.75;23.85;;;7.30;99.90;;;;;;6064572;23;92384;-73
2022/11/26 08:43:40;;;;;;;45.42;18.75;;;7.40;99.90;;;;;;6064809;23;96335;-73
2022/11/26 08:46:27;;;;;;;51.53;21.88;;;7.40;99.90;;;;;;6064974;23;96616;-73
2022/11/26 08:48:56;;;;;;;32.42;18.25;;;7.40;99.90;;;;;;6065772;23;92342;-73
2022/11/26 08:51:24;;;;;;;31.52;16.48;;;7.40;99.90;;;;;;6064867;23;92423;-73
2022/11/26 08:53:51;;;;;;;36.38;18.55;;;7.40;99.90;;;;;;6063993;23;94376;-73
2022/11/26 08:56:18;;;;;;;36.63;16.38;;;7.40;99.90;;;;;;6066189;23;93105;-73
2022/11/26 08:58:46;;;;;;;38.78;17.98;;;7.40;99.90;;;;;;6066329;23;92329;-73
2022/11/26 09:01:15;;;;;;;25.60;16.50;;;7.50;99.90;;;;;;6064787;23;92061;-73
2022/11/26 09:03:43;;;;;;;28.80;15.73;;;7.60;99.90;;;;;;6066104;23;92400;-73
2022/11/26 09:06:10;;;;;;;38.53;17.20;;;7.70;99.90;;;;;;6066025;23;92868;-73
2022/11/26 09:11:25;;;;;;;38.03;17.20;;;7.70;99.90;;;;;;6064723;23;92631;-73
2022/11/26 09:13:52;;;;;;;32.13;16.48;;;7.70;99.90;;;;;;6040084;23;96512;-73
2022/11/26 09:16:22;;;;;;;34.70;15.32;;;7.80;99.90;;;;;;6065309;23;109667;-73
2022/11/26 09:18:50;;;;;;;34.58;16.15;;;7.80;99.90;;;;;;6064863;23;92498;-73
2022/11/26 09:21:18;;;;;;;30.45;16.38;;;7.90;99.90;;;;;;6064419;23;92453;-73
2022/11/26 09:23:45;;;;;;;30.08;16.63;;;7.90;99.90;;;;;;6040054;23;95884;-73
2022/11/26 09:26:12;;;;;;;30.40;15.95;;;8.00;99.90;;;;;;6066195;23;93033;-73
2022/11/26 09:28:39;;;;;;;31.48;16.13;;;8.00;99.90;;;;;;6066198;23;92424;-73
2022/11/26 09:31:06;;;;;;;33.80;17.48;;;8.10;99.90;;;;;;6065946;23;92410;-73
2022/11/26 09:33:33;;;;;;;27.25;16.35;;;8.20;99.90;;;;;;6062756;23;98335;-73
2022/11/26 09:36:04;;;;;;;29.98;16.65;;;8.30;99.90;;;;;;6065594;23;95399;-73
2022/11/26 09:38:32;;;;;;;28.15;15.75;;;8.40;99.90;;;;;;6066099;23;92442;-73
2022/11/26 09:41:20;;;;;;;33.15;16.70;;;8.40;99.90;;;;;;6040125;23;92453;-73
2022/11/26 09:43:56;;;;;;;19.92;11.25;;;8.40;99.90;;;;;;6066049;23;93085;-73
2022/11/26 09:46:36;;;;;;;34.33;18.40;;;8.40;99.90;;;;;;6064386;23;95692;-73
2022/11/26 09:49:17;;;;;;;44.08;20.05;;;8.50;99.90;;;;;;6063877;23;92472;-73
2022/11/26 09:51:47;;;;;;;32.35;18.23;;;8.50;99.90;;;;;;6066645;23;92216;-73
2022/11/26 09:54:20;;;;;;;32.53;19.10;;;8.60;99.90;;;;;;6065755;23;92861;-73
2022/11/26 09:57:01;;;;;;;34.47;20.77;;;8.70;99.90;;;;;;6040290;23;93989;-73
2022/11/26 09:59:29;;;;;;;28.50;18.25;;;8.80;99.90;;;;;;6064642;23;94773;-73
2022/11/26 10:01:56;;;;;;;33.97;19.45;;;8.80;99.90;;;;;;6065103;23;109327;-73
2022/11/26 10:04:28;;;;;;;35.20;19.08;;;8.80;99.90;;;;;;6064096;23;95750;-73
2022/11/26 10:07:06;;;;;;;31.15;20.15;;;8.90;99.90;;;;;;6064508;23;93251;-73
2022/11/26 10:09:36;;;;;;;41.10;19.55;;;8.90;99.90;;;;;;6066159;23;92365;-73
2022/11/26 10:12:30;;;;;;;35.75;20.83;;;8.90;99.90;;;;;;6065800;23;92395;-73
2022/11/26 10:15:16;;;;;;;39.85;20.98;;;9.00;99.90;;;;;;6064346;23;96091;-73
2022/11/26 10:18:04;;;;;;;30.23;18.45;;;9.00;99.90;;;;;;6064669;23;96060;-73
2022/11/26 10:20:43;;;;;;;32.95;21.08;;;9.10;99.90;;;;;;6064248;23;92488;-73
2022/11/26 10:23:10;;;;;;;36.63;20.13;;;9.10;99.90;;;;;;6064380;23;92450;-73
2022/11/26 10:25:51;;;;;;;43.30;23.70;;;9.00;99.90;;;;;;6063196;23;95625;-73
2022/11/26 10:28:33;;;;;;;43.90;24.15;;;9.10;99.90;;;;;;6065504;23;95406;-73
2022/11/26 10:31:03;;;;;;;38.40;20.70;;;9.20;99.90;;;;;;6064301;23;92604;-73
2022/11/26 10:33:55;;;;;;;39.28;22.17;;;9.20;99.90;;;;;;6063964;23;92435;-73
2022/11/26 10:36:43;;;;;;;45.60;22.42;;;9.20;99.90;;;;;;6065526;23;93107;-73
2022/11/26 10:39:14;;;;;;;49.28;24.00;;;9.20;99.90;;;;;;6065716;23;93099;-73
2022/11/26 10:41:41;;;;;;;44.95;23.67;;;9.20;99.90;;;;;;6066109;23;92460;-73
2022/11/26 10:44:32;;;;;;;47.03;22.27;;;9.20;99.90;;;;;;6064394;23;91686;-73
2022/11/26 10:47:20;;;;;;;50.95;23.70;;;9.30;99.90;;;;;;6064543;23;93999;-73
2022/11/26 10:49:49;;;;;;;47.35;24.73;;;9.40;99.90;;;;;;6065566;23;93093;-73
2022/11/26 10:52:29;;;;;;;48.40;23.60;;;9.40;99.90;;;;;;6064233;23;95138;-73
2022/11/26 10:55:24;;;;;;;54.50;25.95;;;9.50;99.90;;;;;;6065774;23;92497;-73
2022/11/26 10:58:01;;;;;;;37.15;21.67;;;9.50;99.90;;;;;;6065659;23;93090;-73
2022/11/26 11:00:43;;;;;;;51.13;25.27;;;9.60;99.90;;;;;;6064795;23;92658;-73
2022/11/26 11:03:24;;;;;;;46.75;23.92;;;9.60;99.90;;;;;;6065856;23;92516;-73
2022/11/26 11:06:12;;;;;;;46.60;25.58;;;9.70;99.90;;;;;;6063978;23;92413;-73
2022/11/26 11:08:39;;;;;;;48.85;23.98;;;9.70;99.90;;;;;;6063769;23;95865;-73
2022/11/26 11:11:21;;;;;;;46.38;24.23;;;9.80;99.90;;;;;;6066005;23;92986;-73
2022/11/26 11:13:48;;;;;;;47.15;24.88;;;10.00;99.90;;;;;;6065759;23;92352;-73
2022/11/26 11:16:27;;;;;;;55.53;25.52;;;10.00;99.90;;;;;;6064028;23;93089;-73
2022/11/26 11:19:01;;;;;;;51.08;24.48;;;10.10;99.90;;;;;;6064242;23;95692;-73
2022/11/26 11:21:33;;;;;;;49.63;24.75;;;10.20;99.90;;;;;;6065265;23;94201;-73
2022/11/26 11:24:27;;;;;;;51.45;27.17;;;10.20;99.90;;;;;;6064365;23;92749;-73
2022/11/26 11:26:57;;;;;;;45.15;24.88;;;10.30;99.90;;;;;;6060045;23;95366;-73
2022/11/26 11:29:26;;;;;;;59.83;25.52;;;10.20;99.90;;;;;;6063572;23;95915;-73
2022/11/26 11:31:54;;;;;;;50.58;24.38;;;10.30;99.90;;;;;;6063691;23;94297;-73
2022/11/26 11:34:33;;;;;;;51.38;24.88;;;10.30;99.90;;;;;;6063281;23;101570;-74
2022/11/26 11:37:20;;;;;;;49.78;25.02;;;10.40;99.90;;;;;;6064705;23;91672;-73
2022/11/26 11:40:13;;;;;;;43.67;25.50;;;10.40;99.90;;;;;;6063841;23;99549;-73
2022/11/26 11:42:50;;;;;;;51.53;24.58;;;10.50;99.90;;;;;;6063830;23;94097;-73
2022/11/26 11:45:33;;;;;;;45.70;25.67;;;10.50;99.90;;;;;;6063915;23;94721;-74
2022/11/26 11:48:22;;;;;;;53.30;24.93;;;10.50;99.90;;;;;;6063959;23;92575;-73
2022/11/26 11:51:30;;;;;;;48.85;24.88;;;10.60;99.90;;;;;;6064009;23;93232;-73
2022/11/26 11:54:26;;;;;;;44.67;23.30;;;10.60;99.90;;;;;;6063769;23;93150;-73
2022/11/26 11:57:13;;;;;;;47.38;24.98;;;10.60;99.90;;;;;;6064175;23;92465;-73
2022/11/26 12:00:08;;;;;;;52.85;25.65;;;10.80;99.90;;;;;;6065716;23;92410;-73
2022/11/26 12:02:56;;;;;;;45.88;23.40;;;10.80;99.90;;;;;;6065190;23;92864;-73
2022/11/26 12:05:32;;;;;;;47.30;24.58;;;10.80;99.90;;;;;;6063838;23;94341;-73
2022/11/26 12:08:19;;;;;;;40.85;22.75;;;10.80;99.90;;;;;;6065650;23;92326;-73
2022/11/26 12:10:58;;;;;;;46.10;22.60;;;10.90;99.90;;;;;;6050167;23;93053;-73
2022/11/26 12:13:28;;;;;;;50.72;24.83;;;10.90;99.90;;;;;;6062118;23;98033;-74
2022/11/26 12:16:04;;;;;;;46.33;23.48;;;10.90;99.90;;;;;;6015537;23;97956;-73
2022/11/26 12:18:40;;;;;;;40.38;21.50;;;11.00;99.90;;;;;;6063759;23;92473;-75
2022/11/26 12:21:12;;;;;;;48.45;23.20;;;10.90;99.90;;;;;;6064103;23;92410;-74
2022/11/26 12:24:01;;;;;;;45.03;23.30;;;10.80;99.90;;;;;;6064969;23;92299;-73
2022/11/26 12:26:34;;;;;;;46.88;23.58;;;10.90;99.90;;;;;;6064962;23;93153;-75
2022/11/26 12:29:15;;;;;;;48.92;23.23;;;10.80;99.90;;;;;;6063447;23;92595;-76
2022/11/26 12:31:47;;;;;;;41.15;22.58;;;10.80;99.90;;;;;;6065467;23;91637;-73
2022/11/26 12:34:33;;;;;;;43.10;22.70;;;10.80;99.90;;;;;;6063388;23;95903;-73
2022/11/26 12:37:05;;;;;;;47.63;23.30;;;10.80;99.90;;;;;;6063577;23;95567;-73
2022/11/26 12:39:45;;;;;;;45.90;23.95;;;10.80;99.90;;;;;;6062159;23;94862;-75
2022/11/26 12:42:26;;;;;;;45.25;23.05;;;10.90;99.90;;;;;;6065289;23;92375;-75
2022/11/26 12:44:59;;;;;;;46.22;23.88;;;10.80;99.90;;;;;;6065052;23;92478;-75
2022/11/26 12:47:37;;;;;;;45.57;23.93;;;10.80;99.90;;;;;;6062894;23;94243;-75
2022/11/26 12:50:14;;;;;;;42.97;22.40;;;10.90;99.90;;;;;;6063484;23;92413;-75
2022/11/26 12:52:59;;;;;;;45.22;23.00;;;10.90;99.90;;;;;;6063359;23;92396;-75
2022/11/26 12:55:50;;;;;;;45.83;22.98;;;10.90;99.90;;;;;;6062930;23;96173;-75
2022/11/26 12:58:33;;;;;;;37.53;20.45;;;10.90;99.90;;;;;;6063738;23;95509;-75